Terminal Aerodrome Forecast
Issued by NWS

Home | Current Version | Previous Version | Text Only | Print | Product List | Glossary On
Versions: 1 2 3 4 5 6 7 8 9 10 11 12 13 14 15
000
FTUS46 KOTX 250523
TAFPUW
TAF
KPUW 250523Z 2506/2606 10010KT P6SM FEW100 SCT200
     FM251400 10014KT P6SM FEW200
     FM252100 14014G20KT P6SM VCSH SCT050 BKN090 BKN120
     FM260100 16016G22KT P6SM -SHRA SCT030 BKN050 OVC080
     FM260500 20018G26KT P6SM VCSH SCT040 BKN060=

USA.gov is the U.S. government's official web portal to all federal, state and local government web resources and services.